createdAt,value
2022-12-01T00:00:03.126Z,27.90
2022-12-01T00:00:14.846Z,29.30
2022-12-01T00:00:25.604Z,29.20
2022-12-01T00:00:38.066Z,30.10
2022-12-01T00:00:49.828Z,30.20
2022-12-01T00:01:00.615Z,31.00
2022-12-01T00:01:13.112Z,30.30
2022-12-01T00:01:24.847Z,29.40
2022-12-01T00:01:35.716Z,28.80
2022-12-01T00:01:48.333Z,28.90
2022-12-01T00:02:00.955Z,28.90
2022-12-01T00:02:13.537Z,28.40
2022-12-01T00:02:26.750Z,27.60
2022-12-01T00:02:38.668Z,27.10
2022-12-01T00:02:49.731Z,27.30
2022-12-01T00:03:00.591Z,27.00
2022-12-01T00:03:13.169Z,28.60
2022-12-01T00:03:26.740Z,29.60
2022-12-01T00:03:37.553Z,29.60
2022-12-01T00:03:49.777Z,30.10
2022-12-01T00:04:00.515Z,29.10
2022-12-01T00:04:12.735Z,29.10
2022-12-01T00:04:23.496Z,29.90
2022-12-01T00:04:35.697Z,30.90
2022-12-01T00:04:47.407Z,30.30
2022-12-01T00:04:58.203Z,29.00
2022-12-01T00:05:09.896Z,29.10
2022-12-01T00:05:23.125Z,29.80
2022-12-01T00:05:34.839Z,30.60
2022-12-01T00:05:45.596Z,31.40
2022-12-01T00:05:56.374Z,30.30
2022-12-01T00:06:07.155Z,30.70
2022-12-01T00:06:17.988Z,30.00
2022-12-01T00:06:28.756Z,30.30
2022-12-01T00:06:40.507Z,30.60
2022-12-01T00:06:52.798Z,31.30
2022-12-01T00:07:05.008Z,30.40
2022-12-01T00:07:16.753Z,30.50
2022-12-01T00:07:27.583Z,30.00
2022-12-01T00:07:38.431Z,30.50
2022-12-01T00:07:49.222Z,30.60
2022-12-01T00:08:01.781Z,29.80
2022-12-01T00:08:14.007Z,28.60
2022-12-01T00:08:27.216Z,28.30
2022-12-01T00:08:39.007Z,28.10
2022-12-01T00:08:49.809Z,29.60
2022-12-01T00:09:01.567Z,30.30
2022-12-01T00:09:19.502Z,30.30
2022-12-01T00:09:31.807Z,30.10
2022-12-01T00:09:43.766Z,29.60
2022-12-01T00:09:55.520Z,29.50
2022-12-01T00:10:07.267Z,30.00
2022-12-01T00:10:18.007Z,29.40
2022-12-01T00:10:28.776Z,28.40
2022-12-01T00:10:39.549Z,29.50
2022-12-01T00:10:50.316Z,30.60
2022-12-01T00:11:02.069Z,30.60
2022-12-01T00:11:12.896Z,29.90
2022-12-01T00:11:23.729Z,30.60
2022-12-01T00:11:35.992Z,31.10
2022-12-01T00:11:49.031Z,30.50
2022-12-01T00:12:01.728Z,29.60
2022-12-01T00:12:14.937Z,30.00
2022-12-01T00:12:27.657Z,29.20
2022-12-01T00:12:40.117Z,29.30
2022-12-01T00:12:51.839Z,29.60
2022-12-01T00:13:04.339Z,30.30
2022-12-01T00:13:15.099Z,30.80
2022-12-01T00:13:25.900Z,30.90
2022-12-01T00:13:36.673Z,30.00
2022-12-01T00:13:48.456Z,30.30
2022-12-01T00:14:00.198Z,31.20
2022-12-01T00:14:14.067Z,30.70
2022-12-01T00:14:25.819Z,30.60
2022-12-01T00:14:37.568Z,30.10
2022-12-01T00:14:49.339Z,29.30
2022-12-01T00:15:01.130Z,29.40
2022-12-01T00:15:12.897Z,29.30
2022-12-01T00:15:24.610Z,30.80
2022-12-01T00:15:36.829Z,30.40
2022-12-01T00:15:50.061Z,30.30
2022-12-01T00:16:00.894Z,30.10
2022-12-01T00:16:12.679Z,31.50
2022-12-01T00:16:25.167Z,32.10
2022-12-01T00:16:37.006Z,32.40
2022-12-01T00:16:49.302Z,31.40
2022-12-01T00:17:01.028Z,32.10
2022-12-01T00:17:13.260Z,31.40
2022-12-01T00:17:25.709Z,30.20
2022-12-01T00:17:37.499Z,30.80
2022-12-01T00:17:49.209Z,31.00
2022-12-01T00:18:00.002Z,30.40
2022-12-01T00:18:10.790Z,32.30
2022-12-01T00:18:23.518Z,33.10
2022-12-01T00:18:38.750Z,33.10
2022-12-01T00:18:51.219Z,33.40
2022-12-01T00:19:02.959Z,33.00
2022-12-01T00:19:13.739Z,32.30
2022-12-01T00:19:25.429Z,32.40
2022-12-01T00:19:38.420Z,31.10
2022-12-01T00:19:51.104Z,30.60
2022-12-01T00:20:02.829Z,30.70
2022-12-01T00:20:14.567Z,32.30
2022-12-01T00:20:26.450Z,32.10
2022-12-01T00:20:38.930Z,32.00
2022-12-01T00:20:50.690Z,31.60
2022-12-01T00:21:03.400Z,33.20
2022-12-01T00:21:15.860Z,33.80
2022-12-01T00:21:26.600Z,32.50
2022-12-01T00:21:38.359Z,30.20
2022-12-01T00:21:50.561Z,30.00
2022-12-01T00:22:03.024Z,31.30
2022-12-01T00:22:17.010Z,31.90
2022-12-01T00:22:27.823Z,32.40
2022-12-01T00:22:40.278Z,31.30
2022-12-01T00:22:51.029Z,31.20
2022-12-01T00:23:03.263Z,30.70
2022-12-01T00:23:14.040Z,32.10
2022-12-01T00:23:24.801Z,32.50
2022-12-01T00:23:36.560Z,31.40
2022-12-01T00:23:49.829Z,31.30
2022-12-01T00:24:02.053Z,31.80
2022-12-01T00:24:14.222Z,30.20
2022-12-01T00:24:25.020Z,30.40
2022-12-01T00:24:36.740Z,29.70
2022-12-01T00:24:49.200Z,30.50
2022-12-01T00:25:01.650Z,31.80
2022-12-01T00:25:12.440Z,31.50
2022-12-01T00:25:24.672Z,31.10
2022-12-01T00:25:36.396Z,30.40
2022-12-01T00:25:48.821Z,31.70
2022-12-01T00:26:01.273Z,30.00
2022-12-01T00:26:12.066Z,30.00
2022-12-01T00:26:22.858Z,30.60
2022-12-01T00:26:34.819Z,32.30
2022-12-01T00:26:47.251Z,32.40
2022-12-01T00:26:59.483Z,31.20
2022-12-01T00:27:10.261Z,30.60
2022-12-01T00:27:22.481Z,31.00
2022-12-01T00:27:34.711Z,31.80
2022-12-01T00:27:46.913Z,31.30
2022-12-01T00:27:59.371Z,30.90
2022-12-01T00:28:11.132Z,30.00
2022-12-01T00:28:22.871Z,31.30
2022-12-01T00:28:34.602Z,31.10
2022-12-01T00:28:46.336Z,31.10
2022-12-01T00:28:59.312Z,31.10
2022-12-01T00:29:11.762Z,31.70
2022-12-01T00:29:22.546Z,32.10
2022-12-01T00:29:34.991Z,32.40
2022-12-01T00:29:47.022Z,32.40
2022-12-01T00:29:59.812Z,32.50
2022-12-01T00:30:11.672Z,31.70
2022-12-01T00:30:24.940Z,31.30
2022-12-01T00:30:37.392Z,33.00
2022-12-01T00:30:49.143Z,32.30
2022-12-01T00:31:00.117Z,31.50
2022-12-01T00:31:11.830Z,29.80
2022-12-01T00:31:24.340Z,31.20
2022-12-01T00:31:36.882Z,30.70
2022-12-01T00:31:47.708Z,31.40
2022-12-01T00:31:58.546Z,30.70
2022-12-01T00:32:09.361Z,30.50
2022-12-01T00:32:20.151Z,30.60
2022-12-01T00:32:30.955Z,30.90
2022-12-01T00:32:41.762Z,30.80
2022-12-01T00:32:54.463Z,31.00
2022-12-01T00:33:06.283Z,31.60
2022-12-01T00:33:18.053Z,32.10
2022-12-01T00:33:31.744Z,33.10
2022-12-01T00:33:43.474Z,31.30
2022-12-01T00:33:55.242Z,31.40
2022-12-01T00:34:10.947Z,31.20
2022-12-01T00:34:21.632Z,31.10
2022-12-01T00:34:32.416Z,31.60
2022-12-01T00:34:44.185Z,31.90
2022-12-01T00:34:56.692Z,32.60
2022-12-01T00:35:09.132Z,32.10
2022-12-01T00:35:21.584Z,31.10
2022-12-01T00:35:32.387Z,32.00
2022-12-01T00:35:44.353Z,33.90
2022-12-01T00:35:56.104Z,34.40
2022-12-01T00:36:07.865Z,32.50
2022-12-01T00:36:18.662Z,31.40
2022-12-01T00:36:29.444Z,30.20
2022-12-01T00:36:40.263Z,30.40
2022-12-01T00:36:51.066Z,31.00
2022-12-01T00:37:04.294Z,31.20
2022-12-01T00:37:16.754Z,31.90
2022-12-01T00:37:27.528Z,30.80
2022-12-01T00:37:39.964Z,30.30
2022-12-01T00:37:51.677Z,31.60
2022-12-01T00:38:04.624Z,32.80
2022-12-01T00:38:15.364Z,33.40
2022-12-01T00:38:27.085Z,32.40
2022-12-01T00:38:38.844Z,31.30
2022-12-01T00:38:49.633Z,33.30
2022-12-01T00:39:02.095Z,33.00
2022-12-01T00:39:14.545Z,32.70
2022-12-01T00:39:27.246Z,32.60
2022-12-01T00:39:38.032Z,31.60
2022-12-01T00:39:50.888Z,31.40
2022-12-01T00:40:02.787Z,32.30
2022-12-01T00:40:13.575Z,32.50
2022-12-01T00:40:24.369Z,32.70
2022-12-01T00:40:35.124Z,33.30
2022-12-01T00:40:45.914Z,33.80
2022-12-01T00:40:58.184Z,34.30
2022-12-01T00:41:10.440Z,33.60
2022-12-01T00:41:21.263Z,32.80
2022-12-01T00:41:32.275Z,33.30
2022-12-01T00:41:43.107Z,34.20
2022-12-01T00:41:54.845Z,33.70
2022-12-01T00:42:11.724Z,34.10
2022-12-01T00:42:24.365Z,34.60
2022-12-01T00:42:36.084Z,35.10
2022-12-01T00:42:46.883Z,35.80
2022-12-01T00:42:59.114Z,34.20
2022-12-01T00:43:09.875Z,33.90
2022-12-01T00:43:22.115Z,34.60
2022-12-01T00:43:33.965Z,36.10
2022-12-01T00:43:46.676Z,34.40
2022-12-01T00:43:57.446Z,34.20
2022-12-01T00:44:09.906Z,34.10
2022-12-01T00:44:21.645Z,34.50
2022-12-01T00:44:35.405Z,33.80
2022-12-01T00:44:47.687Z,33.00
2022-12-01T00:44:58.486Z,33.90
2022-12-01T00:45:09.246Z,34.20
2022-12-01T00:45:20.039Z,36.40
2022-12-01T00:45:31.839Z,36.30
2022-12-01T00:45:45.078Z,37.30
2022-12-01T00:45:56.860Z,36.20
2022-12-01T00:46:09.391Z,35.80
2022-12-01T00:46:21.189Z,35.30
2022-12-01T00:46:32.978Z,35.20
2022-12-01T00:46:46.266Z,36.20
2022-12-01T00:46:58.516Z,35.00
2022-12-01T00:47:10.455Z,35.30
2022-12-01T00:47:21.204Z,36.30
2022-12-01T00:47:32.974Z,36.10
2022-12-01T00:47:43.714Z,34.40
2022-12-01T00:47:56.427Z,34.80
2022-12-01T00:48:07.196Z,35.50
2022-12-01T00:48:19.916Z,35.70
2022-12-01T00:48:31.637Z,36.00
2022-12-01T00:48:43.863Z,36.30
2022-12-01T00:48:54.616Z,36.30
2022-12-01T00:49:06.358Z,35.50
2022-12-01T00:49:18.576Z,34.70
2022-12-01T00:49:30.297Z,34.90
2022-12-01T00:49:42.488Z,34.00
2022-12-01T00:49:54.926Z,35.00
2022-12-01T00:50:08.555Z,35.30
2022-12-01T00:50:19.324Z,35.40
2022-12-01T00:50:31.527Z,35.80
2022-12-01T00:50:43.949Z,36.00
2022-12-01T00:50:55.707Z,36.20
2022-12-01T00:51:08.007Z,35.90
2022-12-01T00:51:18.787Z,36.30
2022-12-01T00:51:29.518Z,35.70
2022-12-01T00:51:40.302Z,37.20
2022-12-01T00:51:54.036Z,36.00
2022-12-01T00:52:06.585Z,36.00
2022-12-01T00:52:18.837Z,35.40
2022-12-01T00:52:29.609Z,35.30
2022-12-01T00:52:41.808Z,35.90
2022-12-01T00:52:53.547Z,35.70
2022-12-01T00:53:05.238Z,33.90
2022-12-01T00:53:17.715Z,35.20
2022-12-01T00:53:30.430Z,35.60
2022-12-01T00:53:42.649Z,35.70
2022-12-01T00:53:53.479Z,34.10
2022-12-01T00:54:05.488Z,34.50
2022-12-01T00:54:16.248Z,35.40
2022-12-01T00:54:28.207Z,34.80
2022-12-01T00:54:39.936Z,34.50
2022-12-01T00:54:52.168Z,34.50
2022-12-01T00:55:02.920Z,35.40
2022-12-01T00:55:13.681Z,35.80
2022-12-01T00:55:26.098Z,35.70
2022-12-01T00:55:37.826Z,36.30
2022-12-01T00:55:48.888Z,35.80
2022-12-01T00:56:01.337Z,35.20
2022-12-01T00:56:13.779Z,35.90
2022-12-01T00:56:25.997Z,36.30
2022-12-01T00:56:36.746Z,36.90
2022-12-01T00:56:47.540Z,36.20
2022-12-01T00:56:59.258Z,34.80
2022-12-01T00:57:10.999Z,34.50
2022-12-01T00:57:21.769Z,34.10
2022-12-01T00:57:34.738Z,35.30
2022-12-01T00:57:47.278Z,36.70
2022-12-01T00:57:59.728Z,36.20
2022-12-01T00:58:10.469Z,36.30
2022-12-01T00:58:22.213Z,36.50
2022-12-01T00:58:34.430Z,36.10
2022-12-01T00:58:45.209Z,35.40
2022-12-01T00:58:55.989Z,35.80
2022-12-01T00:59:06.760Z,36.00
2022-12-01T00:59:19.532Z,35.30
2022-12-01T00:59:30.336Z,35.80
2022-12-01T00:59:43.068Z,35.50
2022-12-01T00:59:56.078Z,35.10
2022-12-01T01:00:09.329Z,36.30
2022-12-01T01:00:20.130Z,37.20
2022-12-01T01:00:30.949Z,36.50
2022-12-01T01:00:43.223Z,36.80
2022-12-01T01:00:55.980Z,35.70
2022-12-01T01:01:08.486Z,35.20
2022-12-01T01:01:20.294Z,35.60
2022-12-01T01:01:33.582Z,37.10
2022-12-01T01:01:45.954Z,37.60
2022-12-01T01:01:57.722Z,36.60
2022-12-01T01:02:09.970Z,35.80
2022-12-01T01:02:21.759Z,36.60
2022-12-01T01:02:32.621Z,37.10
2022-12-01T01:02:45.186Z,37.00
2022-12-01T01:02:55.950Z,37.40
2022-12-01T01:03:08.158Z,36.50
2022-12-01T01:03:19.918Z,37.80
2022-12-01T01:03:32.369Z,36.30
2022-12-01T01:03:44.819Z,36.70
2022-12-01T01:03:55.603Z,37.00
2022-12-01T01:04:07.820Z,37.60
2022-12-01T01:04:19.580Z,36.30
2022-12-01T01:04:30.381Z,36.00
2022-12-01T01:04:42.130Z,35.90
2022-12-01T01:04:52.921Z,35.90
2022-12-01T01:05:05.150Z,37.00
2022-12-01T01:05:15.909Z,36.40
2022-12-01T01:05:26.724Z,36.90
2022-12-01T01:05:38.921Z,36.80
2022-12-01T01:05:50.665Z,37.40
2022-12-01T01:06:01.481Z,36.80
2022-12-01T01:06:12.340Z,36.90
2022-12-01T01:06:24.090Z,36.40
2022-12-01T01:06:34.889Z,37.40
2022-12-01T01:06:45.691Z,37.30
2022-12-01T01:06:58.431Z,37.80
2022-12-01T01:07:09.261Z,39.30
2022-12-01T01:07:21.587Z,38.60
2022-12-01T01:07:34.192Z,37.80
2022-12-01T01:07:45.053Z,37.60
2022-12-01T01:07:57.441Z,37.60
2022-12-01T01:08:08.343Z,38.10
2022-12-01T01:08:19.135Z,38.00
2022-12-01T01:08:29.892Z,38.50
2022-12-01T01:08:40.700Z,37.10
2022-12-01T01:08:52.423Z,36.50
2022-12-01T01:09:03.251Z,36.20
2022-12-01T01:09:15.468Z,36.90
2022-12-01T01:09:27.222Z,37.30
2022-12-01T01:09:38.951Z,37.60
2022-12-01T01:09:50.014Z,37.60
2022-12-01T01:10:01.880Z,37.50
2022-12-01T01:10:14.611Z,38.30
2022-12-01T01:10:27.053Z,37.80
2022-12-01T01:10:37.861Z,36.80
2022-12-01T01:10:48.621Z,37.20
2022-12-01T01:11:00.401Z,37.70
2022-12-01T01:11:11.170Z,39.60
2022-12-01T01:11:22.912Z,37.60
2022-12-01T01:11:33.683Z,36.80
2022-12-01T01:11:44.471Z,36.20
2022-12-01T01:11:55.251Z,36.80
2022-12-01T01:12:07.701Z,37.30
2022-12-01T01:12:18.495Z,36.70
2022-12-01T01:12:30.451Z,36.20
2022-12-01T01:12:42.942Z,37.10
2022-12-01T01:12:53.762Z,37.60
2022-12-01T01:13:04.543Z,38.00
2022-12-01T01:13:15.323Z,37.70
2022-12-01T01:13:27.770Z,35.80
2022-12-01T01:13:40.243Z,35.90
2022-12-01T01:13:51.032Z,36.30
2022-12-01T01:14:02.780Z,35.60
2022-12-01T01:14:13.602Z,34.80
2022-12-01T01:14:25.885Z,35.00
2022-12-01T01:14:37.616Z,35.90
2022-12-01T01:14:49.405Z,36.50
2022-12-01T01:15:01.180Z,36.20
2022-12-01T01:15:11.962Z,36.40
2022-12-01T01:15:24.551Z,37.10
2022-12-01T01:15:35.332Z,36.90
2022-12-01T01:15:47.803Z,36.30
2022-12-01T01:16:00.244Z,36.20
2022-12-01T01:16:11.084Z,35.80
2022-12-01T01:16:21.864Z,35.90
2022-12-01T01:16:32.787Z,36.30
2022-12-01T01:16:43.695Z,36.00
2022-12-01T01:16:54.555Z,36.50
2022-12-01T01:17:07.084Z,36.40
2022-12-01T01:17:17.833Z,36.30
2022-12-01T01:17:28.564Z,36.20
2022-12-01T01:17:40.973Z,36.30
2022-12-01T01:17:51.733Z,36.20
2022-12-01T01:18:03.992Z,35.60
2022-12-01T01:18:14.803Z,36.60
2022-12-01T01:18:25.604Z,36.80
2022-12-01T01:18:37.352Z,36.00
2022-12-01T01:18:49.809Z,35.30
2022-12-01T01:19:00.632Z,37.10
2022-12-01T01:19:13.134Z,36.80
2022-12-01T01:19:25.584Z,37.60
2022-12-01T01:19:36.362Z,36.60
2022-12-01T01:19:47.446Z,35.20
2022-12-01T01:19:58.426Z,34.40
2022-12-01T01:20:09.225Z,34.40
2022-12-01T01:20:20.950Z,35.70
2022-12-01T01:20:33.166Z,36.80
2022-12-01T01:20:45.644Z,36.80
2022-12-01T01:20:56.461Z,36.60
2022-12-01T01:21:07.274Z,36.20
2022-12-01T01:21:19.003Z,35.80
2022-12-01T01:21:31.444Z,35.00
2022-12-01T01:21:43.644Z,34.70
2022-12-01T01:21:55.371Z,35.20
2022-12-01T01:22:07.149Z,36.90
2022-12-01T01:22:17.904Z,37.40
2022-12-01T01:22:28.664Z,36.80
2022-12-01T01:22:39.505Z,36.70
2022-12-01T01:22:52.715Z,36.50
2022-12-01T01:23:07.360Z,36.60
2022-12-01T01:23:20.123Z,36.10
2022-12-01T01:23:32.877Z,37.10
2022-12-01T01:23:45.376Z,36.40
2022-12-01T01:23:57.346Z,34.70
2022-12-01T01:24:09.574Z,35.20
2022-12-01T01:24:20.354Z,35.70
2022-12-01T01:24:32.085Z,37.10
2022-12-01T01:24:44.565Z,36.70
2022-12-01T01:24:55.360Z,36.90
2022-12-01T01:25:06.116Z,35.40
2022-12-01T01:25:16.905Z,35.50
2022-12-01T01:25:30.117Z,34.90
2022-12-01T01:25:40.891Z,35.00
2022-12-01T01:25:53.095Z,36.20
2022-12-01T01:26:05.816Z,35.70
2022-12-01T01:26:16.594Z,35.30
2022-12-01T01:26:28.366Z,35.70
2022-12-01T01:26:40.823Z,36.00
2022-12-01T01:26:52.567Z,36.00
2022-12-01T01:27:04.317Z,35.20
2022-12-01T01:27:16.083Z,34.30
2022-12-01T01:27:29.285Z,34.50
2022-12-01T01:27:40.032Z,34.50
2022-12-01T01:27:51.728Z,36.50
2022-12-01T01:28:03.475Z,35.80
2022-12-01T01:28:14.245Z,35.20
2022-12-01T01:28:25.955Z,36.10
2022-12-01T01:28:36.695Z,34.90
2022-12-01T01:28:47.456Z,36.60
2022-12-01T01:28:58.237Z,35.70
2022-12-01T01:29:09.967Z,36.10
2022-12-01T01:29:20.715Z,36.10
2022-12-01T01:29:32.446Z,36.40
2022-12-01T01:29:43.238Z,36.40
2022-12-01T01:29:54.955Z,35.90
2022-12-01T01:30:05.704Z,34.80
2022-12-01T01:30:16.476Z,34.50
2022-12-01T01:30:27.321Z,34.40
2022-12-01T01:30:38.113Z,35.40
2022-12-01T01:30:48.897Z,35.50
2022-12-01T01:31:01.238Z,35.80
2022-12-01T01:31:12.080Z,35.40
2022-12-01T01:31:24.111Z,36.20
2022-12-01T01:31:36.314Z,36.10
2022-12-01T01:31:48.758Z,34.80
2022-12-01T01:31:59.516Z,34.80
2022-12-01T01:32:10.276Z,35.70
2022-12-01T01:32:21.050Z,35.90
2022-12-01T01:32:31.819Z,35.60
2022-12-01T01:32:42.547Z,35.30
2022-12-01T01:32:53.275Z,35.50
2022-12-01T01:33:04.068Z,36.20
2022-12-01T01:33:16.533Z,37.50
2022-12-01T01:33:29.007Z,36.00
2022-12-01T01:33:41.217Z,33.90
2022-12-01T01:33:52.026Z,33.90
2022-12-01T01:34:05.227Z,35.70
2022-12-01T01:34:16.992Z,35.60
2022-12-01T01:34:29.456Z,35.30
2022-12-01T01:34:40.277Z,35.70
2022-12-01T01:34:51.008Z,35.30
2022-12-01T01:35:01.777Z,35.40
2022-12-01T01:35:14.227Z,34.90
2022-12-01T01:35:26.532Z,36.00
2022-12-01T01:35:38.271Z,37.20
2022-12-01T01:35:49.007Z,35.60
2022-12-01T01:36:00.758Z,34.40
2022-12-01T01:36:13.676Z,33.60
2022-12-01T01:36:24.457Z,34.50
2022-12-01T01:36:35.248Z,34.90
2022-12-01T01:36:47.282Z,35.00
2022-12-01T01:36:59.727Z,34.40
2022-12-01T01:37:10.528Z,34.00
2022-12-01T01:37:21.308Z,33.70
2022-12-01T01:37:32.037Z,33.30
2022-12-01T01:37:42.827Z,33.00
2022-12-01T01:37:53.596Z,33.00
2022-12-01T01:38:04.397Z,33.30
2022-12-01T01:38:15.165Z,34.40
2022-12-01T01:38:27.369Z,34.00
2022-12-01T01:38:40.080Z,34.90
2022-12-01T01:38:50.888Z,35.90
2022-12-01T01:39:01.647Z,35.20
2022-12-01T01:39:12.428Z,35.20
2022-12-01T01:39:23.227Z,35.10
2022-12-01T01:39:33.960Z,33.90
2022-12-01T01:39:46.345Z,33.20
2022-12-01T01:39:57.177Z,34.40
2022-12-01T01:40:08.902Z,34.90
2022-12-01T01:40:21.131Z,35.10
2022-12-01T01:40:32.828Z,35.00
2022-12-01T01:40:45.269Z,34.80
2022-12-01T01:40:56.038Z,34.40
2022-12-01T01:41:08.178Z,34.80
2022-12-01T01:41:18.918Z,34.70
2022-12-01T01:41:29.680Z,34.70
2022-12-01T01:41:40.468Z,34.30
2022-12-01T01:41:52.917Z,36.00
2022-12-01T01:42:04.668Z,38.00
2022-12-01T01:42:16.410Z,38.10
2022-12-01T01:42:27.202Z,36.30
2022-12-01T01:42:37.946Z,34.90
2022-12-01T01:42:48.678Z,34.60
2022-12-01T01:43:00.368Z,34.40
2022-12-01T01:43:11.168Z,34.80
2022-12-01T01:43:23.606Z,34.70
2022-12-01T01:43:35.861Z,34.90
2022-12-01T01:43:48.609Z,35.30
2022-12-01T01:43:59.413Z,35.50
2022-12-01T01:44:11.179Z,36.50
2022-12-01T01:44:21.989Z,37.80
2022-12-01T01:44:34.709Z,37.50
2022-12-01T01:44:46.948Z,34.20
2022-12-01T01:44:58.692Z,34.00
2022-12-01T01:45:10.399Z,35.30
2022-12-01T01:45:21.207Z,37.50
2022-12-01T01:45:32.873Z,36.60
2022-12-01T01:45:45.444Z,35.60
2022-12-01T01:45:58.695Z,36.20
2022-12-01T01:46:12.517Z,38.50
2022-12-01T01:46:24.397Z,38.30
2022-12-01T01:46:37.139Z,36.20
2022-12-01T01:46:47.871Z,38.80
2022-12-01T01:46:59.651Z,38.60
2022-12-01T01:47:12.629Z,36.60
2022-12-01T01:47:23.401Z,37.50
2022-12-01T01:47:36.369Z,38.00
2022-12-01T01:47:48.074Z,37.50
2022-12-01T01:48:00.260Z,35.40
2022-12-01T01:48:12.765Z,35.90
2022-12-01T01:48:25.236Z,36.30
2022-12-01T01:48:37.979Z,36.20
2022-12-01T01:48:50.420Z,36.30
2022-12-01T01:49:01.223Z,36.40
2022-12-01T01:49:13.430Z,35.60
2022-12-01T01:49:24.181Z,34.70
2022-12-01T01:49:36.629Z,35.00
2022-12-01T01:49:47.572Z,36.20
2022-12-01T01:49:58.478Z,36.30
2022-12-01T01:50:09.345Z,36.60
2022-12-01T01:50:21.561Z,36.70
2022-12-01T01:50:33.802Z,37.10
2022-12-01T01:50:45.541Z,34.90
2022-12-01T01:50:56.360Z,35.10
2022-12-01T01:51:07.171Z,35.30
2022-12-01T01:51:17.994Z,35.60
2022-12-01T01:51:28.833Z,36.10
2022-12-01T01:51:41.038Z,35.40
2022-12-01T01:51:52.751Z,35.00
2022-12-01T01:52:06.504Z,35.00
2022-12-01T01:52:17.281Z,34.30
2022-12-01T01:52:29.260Z,35.10
2022-12-01T01:52:41.004Z,34.50
2022-12-01T01:52:52.770Z,35.20
2022-12-01T01:53:05.248Z,35.80
2022-12-01T01:53:17.461Z,35.70
2022-12-01T01:53:28.222Z,35.90
2022-12-01T01:53:39.931Z,36.60
2022-12-01T01:53:52.162Z,38.00
2022-12-01T01:54:04.160Z,36.80
2022-12-01T01:54:17.622Z,36.60
2022-12-01T01:54:28.430Z,35.10
2022-12-01T01:54:41.630Z,35.70
2022-12-01T01:54:55.342Z,37.10
2022-12-01T01:55:07.112Z,37.50
2022-12-01T01:55:17.871Z,37.60
2022-12-01T01:55:29.844Z,35.60
2022-12-01T01:55:43.581Z,35.40
2022-12-01T01:55:54.391Z,35.20
2022-12-01T01:56:06.861Z,35.60
2022-12-01T01:56:17.646Z,36.50
2022-12-01T01:56:28.435Z,36.20
2022-12-01T01:56:40.912Z,37.40
2022-12-01T01:56:53.144Z,35.80
2022-12-01T01:57:04.967Z,35.10
2022-12-01T01:57:17.422Z,36.20
2022-12-01T01:57:28.199Z,36.50
2022-12-01T01:57:40.436Z,36.30
2022-12-01T01:57:53.642Z,36.20
2022-12-01T01:58:04.402Z,36.30
2022-12-01T01:58:16.194Z,35.40
2022-12-01T01:58:28.412Z,36.30
2022-12-01T01:58:40.881Z,38.10
2022-12-01T01:58:53.335Z,38.10
2022-12-01T01:59:05.086Z,37.30
2022-12-01T01:59:15.862Z,35.70
2022-12-01T01:59:27.608Z,34.00
2022-12-01T01:59:38.381Z,35.50
2022-12-01T01:59:49.434Z,36.40
2022-12-01T02:00:01.276Z,37.50
2022-12-01T02:00:12.074Z,37.20
2022-12-01T02:00:22.863Z,37.10
2022-12-01T02:00:34.618Z,36.20
2022-12-01T02:00:45.443Z,36.00
2022-12-01T02:00:56.318Z,35.40
2022-12-01T02:01:07.207Z,36.10
2022-12-01T02:01:18.044Z,36.90
2022-12-01T02:01:28.930Z,36.40
2022-12-01T02:01:40.976Z,35.50
2022-12-01T02:01:52.724Z,35.00
2022-12-01T02:02:04.997Z,36.50
2022-12-01T02:02:17.227Z,36.90
2022-12-01T02:02:29.030Z,38.00
2022-12-01T02:02:39.870Z,38.50
2022-12-01T02:02:51.663Z,38.50
2022-12-01T02:03:04.112Z,37.40
2022-12-01T02:03:15.834Z,37.90
2022-12-01T02:03:28.086Z,37.00
2022-12-01T02:03:40.532Z,37.10
2022-12-01T02:03:52.973Z,37.80
2022-12-01T02:04:04.721Z,38.80
2022-12-01T02:04:15.503Z,37.50
2022-12-01T02:04:27.723Z,37.20
2022-12-01T02:04:39.943Z,38.40
2022-12-01T02:04:51.944Z,39.20
2022-12-01T02:05:04.406Z,39.10
2022-12-01T02:05:16.883Z,39.00
2022-12-01T02:05:29.367Z,39.30
2022-12-01T02:05:41.017Z,37.70
2022-12-01T02:05:51.844Z,37.00
2022-12-01T02:06:05.122Z,37.30
2022-12-01T02:06:17.064Z,35.90
2022-12-01T02:06:28.803Z,36.20
2022-12-01T02:06:40.524Z,37.50
2022-12-01T02:06:51.277Z,38.70
2022-12-01T02:07:03.505Z,40.00
2022-12-01T02:07:15.734Z,39.50
2022-12-01T02:07:28.724Z,38.80
2022-12-01T02:07:40.953Z,38.50
2022-12-01T02:07:51.767Z,38.60
2022-12-01T02:08:02.716Z,38.50
2022-12-01T02:08:15.990Z,37.60
2022-12-01T02:08:27.745Z,38.50
2022-12-01T02:08:40.216Z,37.60
2022-12-01T02:08:51.984Z,39.40
2022-12-01T02:09:04.506Z,37.60
2022-12-01T02:09:16.273Z,37.90
2022-12-01T02:09:28.264Z,39.70
2022-12-01T02:09:40.724Z,39.30
2022-12-01T02:09:53.167Z,37.60
2022-12-01T02:10:03.943Z,36.70
2022-12-01T02:10:14.695Z,37.40
2022-12-01T02:10:26.455Z,38.00
2022-12-01T02:10:37.226Z,38.40
2022-12-01T02:10:49.425Z,38.20
2022-12-01T02:11:03.136Z,35.90
2022-12-01T02:11:15.604Z,35.90
2022-12-01T02:11:26.353Z,35.90
2022-12-01T02:11:38.102Z,37.00
2022-12-01T02:11:49.814Z,38.80
2022-12-01T02:12:02.055Z,40.30
2022-12-01T02:12:13.785Z,40.30
2022-12-01T02:12:25.565Z,39.50
2022-12-01T02:12:37.355Z,38.50
2022-12-01T02:12:49.105Z,38.30
2022-12-01T02:13:01.583Z,38.60
2022-12-01T02:13:13.816Z,36.90
2022-12-01T02:13:25.595Z,37.40
2022-12-01T02:13:37.305Z,37.70
2022-12-01T02:13:49.037Z,37.90
2022-12-01T02:14:00.795Z,38.90
2022-12-01T02:14:14.037Z,38.40
2022-12-01T02:14:24.836Z,38.10
2022-12-01T02:14:39.478Z,37.60
2022-12-01T02:14:51.955Z,38.50
2022-12-01T02:15:02.736Z,38.40
2022-12-01T02:15:13.494Z,37.40
2022-12-01T02:15:24.276Z,38.40
2022-12-01T02:15:37.015Z,39.60
2022-12-01T02:15:48.759Z,39.50
2022-12-01T02:16:00.739Z,38.30
2022-12-01T02:16:11.583Z,36.60
2022-12-01T02:16:22.431Z,36.90
2022-12-01T02:16:34.211Z,36.80
2022-12-01T02:16:46.043Z,36.80
2022-12-01T02:16:56.867Z,37.90
2022-12-01T02:17:08.730Z,37.30
2022-12-01T02:17:19.465Z,36.50
2022-12-01T02:17:36.375Z,36.60
2022-12-01T02:17:49.766Z,38.40
2022-12-01T02:18:01.596Z,37.70
2022-12-01T02:18:12.416Z,38.50
2022-12-01T02:18:24.637Z,38.50
2022-12-01T02:18:37.076Z,38.50
2022-12-01T02:18:50.827Z,37.40
2022-12-01T02:19:01.605Z,37.50
2022-12-01T02:19:13.387Z,36.60
2022-12-01T02:19:25.606Z,36.20
2022-12-01T02:19:36.406Z,36.40
2022-12-01T02:19:47.586Z,36.90
2022-12-01T02:19:58.517Z,37.00
2022-12-01T02:20:09.306Z,37.70
2022-12-01T02:20:22.318Z,38.80
2022-12-01T02:20:33.106Z,37.80
2022-12-01T02:20:43.867Z,36.50
2022-12-01T02:20:54.647Z,36.70
2022-12-01T02:21:06.406Z,36.50
2022-12-01T02:21:17.176Z,37.20
2022-12-01T02:21:27.917Z,37.60
2022-12-01T02:21:39.638Z,37.10
2022-12-01T02:21:52.117Z,37.40
2022-12-01T02:22:02.938Z,38.60
2022-12-01T02:22:16.146Z,37.90
2022-12-01T02:22:26.997Z,36.70
2022-12-01T02:22:38.785Z,37.00
2022-12-01T02:22:53.906Z,36.60
2022-12-01T02:23:04.928Z,35.90
2022-12-01T02:23:15.686Z,36.80
2022-12-01T02:23:27.407Z,36.40
2022-12-01T02:23:38.147Z,37.00
2022-12-01T02:23:48.969Z,36.60
2022-12-01T02:24:01.777Z,36.20
2022-12-01T02:24:13.517Z,36.00
2022-12-01T02:24:26.738Z,36.60
2022-12-01T02:24:39.985Z,35.10
2022-12-01T02:24:51.710Z,35.90
2022-12-01T02:25:04.929Z,37.60
2022-12-01T02:25:15.717Z,38.90
2022-12-01T02:25:28.968Z,38.30
2022-12-01T02:25:41.709Z,37.60
2022-12-01T02:25:52.476Z,38.10
2022-12-01T02:26:04.327Z,38.10
2022-12-01T02:26:17.268Z,38.90
2022-12-01T02:26:29.760Z,37.80
2022-12-01T02:26:42.129Z,37.50
2022-12-01T02:26:54.608Z,38.20
2022-12-01T02:27:07.089Z,38.00
2022-12-01T02:27:19.508Z,38.20
2022-12-01T02:27:32.719Z,38.20
2022-12-01T02:27:44.499Z,39.60
2022-12-01T02:27:56.749Z,39.70
2022-12-01T02:28:08.508Z,39.10
2022-12-01T02:28:20.758Z,38.30
2022-12-01T02:28:31.580Z,37.90
2022-12-01T02:28:43.813Z,37.60
2022-12-01T02:28:55.517Z,37.70
2022-12-01T02:29:08.221Z,36.50
2022-12-01T02:29:21.332Z,36.30
2022-12-01T02:29:32.127Z,37.40
2022-12-01T02:29:42.972Z,36.80
2022-12-01T02:29:56.595Z,36.60
2022-12-01T02:30:08.859Z,36.00
2022-12-01T02:30:21.358Z,36.90
2022-12-01T02:30:33.645Z,36.90
2022-12-01T02:30:45.958Z,37.00
2022-12-01T02:30:58.459Z,37.60
2022-12-01T02:31:09.283Z,38.70
2022-12-01T02:31:20.328Z,38.50
2022-12-01T02:31:31.069Z,37.70